sensor_id;sensor_type;location;lat;lon;timestamp;P1;durP1;ratioP1;P2;durP2;ratioP2
23474;SDS011;11910;52.086;21.066;2023-09-18T00:00:31;5.35;;;3.80;;
23474;SDS011;11910;52.086;21.066;2023-09-18T00:03:00;5.45;;;2.92;;
23474;SDS011;11910;52.086;21.066;2023-09-18T00:05:28;5.63;;;4.22;;
23474;SDS011;11910;52.086;21.066;2023-09-18T00:07:54;5.50;;;4.13;;
23474;SDS011;11910;52.086;21.066;2023-09-18T00:10:19;7.53;;;3.10;;
23474;SDS011;11910;52.086;21.066;2023-09-18T00:12:45;7.20;;;4.55;;
23474;SDS011;11910;52.086;21.066;2023-09-18T00:15:10;6.25;;;4.20;;
23474;SDS011;11910;52.086;21.066;2023-09-18T00:17:36;8.45;;;3.85;;
23474;SDS011;11910;52.086;21.066;2023-09-18T00:20:02;6.32;;;4.00;;
23474;SDS011;11910;52.086;21.066;2023-09-18T00:22:31;6.70;;;4.43;;
23474;SDS011;11910;52.086;21.066;2023-09-18T00:24:57;8.43;;;3.47;;
23474;SDS011;11910;52.086;21.066;2023-09-18T00:27:22;7.65;;;3.58;;
23474;SDS011;11910;52.086;21.066;2023-09-18T00:29:48;6.75;;;3.80;;
23474;SDS011;11910;52.086;21.066;2023-09-18T00:32:14;5.97;;;4.00;;
23474;SDS011;11910;52.086;21.066;2023-09-18T00:34:39;6.72;;;3.90;;
23474;SDS011;11910;52.086;21.066;2023-09-18T00:37:05;6.60;;;3.42;;
23474;SDS011;11910;52.086;21.066;2023-09-18T00:39:30;6.25;;;3.90;;
23474;SDS011;11910;52.086;21.066;2023-09-18T00:41:56;6.60;;;3.80;;
23474;SDS011;11910;52.086;21.066;2023-09-18T00:44:22;4.38;;;3.90;;
23474;SDS011;11910;52.086;21.066;2023-09-18T00:46:48;6.80;;;4.28;;
23474;SDS011;11910;52.086;21.066;2023-09-18T00:49:14;5.78;;;4.10;;
23474;SDS011;11910;52.086;21.066;2023-09-18T00:51:41;6.68;;;3.60;;
23474;SDS011;11910;52.086;21.066;2023-09-18T00:54:08;5.85;;;3.55;;
23474;SDS011;11910;52.086;21.066;2023-09-18T00:56:35;5.75;;;4.20;;
23474;SDS011;11910;52.086;21.066;2023-09-18T00:59:00;8.52;;;3.83;;
23474;SDS011;11910;52.086;21.066;2023-09-18T01:01:28;6.90;;;3.80;;
23474;SDS011;11910;52.086;21.066;2023-09-18T01:03:54;11.73;;;4.68;;
23474;SDS011;11910;52.086;21.066;2023-09-18T01:06:25;7.38;;;4.28;;
23474;SDS011;11910;52.086;21.066;2023-09-18T01:08:55;4.43;;;3.80;;
23474;SDS011;11910;52.086;21.066;2023-09-18T01:11:36;8.55;;;3.85;;
23474;SDS011;11910;52.086;21.066;2023-09-18T01:14:37;4.47;;;3.65;;
23474;SDS011;11910;52.086;21.066;2023-09-18T01:17:05;7.38;;;4.00;;
23474;SDS011;11910;52.086;21.066;2023-09-18T01:19:38;5.63;;;3.90;;
23474;SDS011;11910;52.086;21.066;2023-09-18T01:22:12;5.53;;;4.18;;
23474;SDS011;11910;52.086;21.066;2023-09-18T01:24:39;12.27;;;5.00;;
23474;SDS011;11910;52.086;21.066;2023-09-18T01:27:07;8.65;;;3.85;;
23474;SDS011;11910;52.086;21.066;2023-09-18T01:29:34;5.93;;;3.03;;
23474;SDS011;11910;52.086;21.066;2023-09-18T01:32:00;4.25;;;3.85;;
23474;SDS011;11910;52.086;21.066;2023-09-18T01:34:26;5.90;;;3.58;;
23474;SDS011;11910;52.086;21.066;2023-09-18T01:36:58;5.55;;;3.25;;
23474;SDS011;11910;52.086;21.066;2023-09-18T01:39:24;3.58;;;3.25;;
23474;SDS011;11910;52.086;21.066;2023-09-18T01:41:55;4.38;;;3.13;;
23474;SDS011;11910;52.086;21.066;2023-09-18T01:44:23;5.63;;;3.33;;
23474;SDS011;11910;52.086;21.066;2023-09-18T01:46:48;7.78;;;3.60;;
23474;SDS011;11910;52.086;21.066;2023-09-18T01:49:16;2.53;;;2.28;;
23474;SDS011;11910;52.086;21.066;2023-09-18T01:51:51;6.30;;;3.42;;
23474;SDS011;11910;52.086;21.066;2023-09-18T01:54:17;5.13;;;3.72;;
23474;SDS011;11910;52.086;21.066;2023-09-18T01:56:42;6.10;;;2.90;;
23474;SDS011;11910;52.086;21.066;2023-09-18T01:59:08;6.75;;;5.13;;
23474;SDS011;11910;52.086;21.066;2023-09-18T02:01:34;10.68;;;6.43;;
23474;SDS011;11910;52.086;21.066;2023-09-18T02:04:00;8.10;;;5.22;;
23474;SDS011;11910;52.086;21.066;2023-09-18T02:06:25;5.72;;;4.70;;
23474;SDS011;11910;52.086;21.066;2023-09-18T02:08:51;6.38;;;5.32;;
23474;SDS011;11910;52.086;21.066;2023-09-18T02:11:18;7.45;;;4.15;;
23474;SDS011;11910;52.086;21.066;2023-09-18T02:13:43;7.88;;;4.93;;
23474;SDS011;11910;52.086;21.066;2023-09-18T02:16:09;8.75;;;4.65;;
23474;SDS011;11910;52.086;21.066;2023-09-18T02:18:34;10.50;;;5.70;;
23474;SDS011;11910;52.086;21.066;2023-09-18T02:21:00;9.60;;;5.88;;
23474;SDS011;11910;52.086;21.066;2023-09-18T02:23:26;10.15;;;6.78;;
23474;SDS011;11910;52.086;21.066;2023-09-18T02:25:57;7.50;;;5.68;;
23474;SDS011;11910;52.086;21.066;2023-09-18T02:28:23;7.85;;;6.05;;
23474;SDS011;11910;52.086;21.066;2023-09-18T02:30:49;6.00;;;5.35;;
23474;SDS011;11910;52.086;21.066;2023-09-18T02:33:15;6.95;;;6.22;;
23474;SDS011;11910;52.086;21.066;2023-09-18T02:35:40;11.68;;;6.20;;
23474;SDS011;11910;52.086;21.066;2023-09-18T02:38:08;11.35;;;6.18;;
23474;SDS011;11910;52.086;21.066;2023-09-18T02:40:34;11.80;;;6.97;;
23474;SDS011;11910;52.086;21.066;2023-09-18T02:42:59;11.10;;;6.70;;
23474;SDS011;11910;52.086;21.066;2023-09-18T02:45:27;9.38;;;7.10;;
23474;SDS011;11910;52.086;21.066;2023-09-18T02:47:52;8.40;;;6.40;;
23474;SDS011;11910;52.086;21.066;2023-09-18T02:50:18;6.95;;;5.97;;
23474;SDS011;11910;52.086;21.066;2023-09-18T02:52:44;10.63;;;6.93;;
23474;SDS011;11910;52.086;21.066;2023-09-18T02:55:09;8.77;;;7.45;;
23474;SDS011;11910;52.086;21.066;2023-09-18T02:57:35;9.25;;;7.47;;
23474;SDS011;11910;52.086;21.066;2023-09-18T03:00:01;9.32;;;7.40;;
23474;SDS011;11910;52.086;21.066;2023-09-18T03:02:27;9.32;;;8.13;;
23474;SDS011;11910;52.086;21.066;2023-09-18T03:04:52;10.05;;;7.47;;
23474;SDS011;11910;52.086;21.066;2023-09-18T03:07:18;11.05;;;7.40;;
23474;SDS011;11910;52.086;21.066;2023-09-18T03:09:43;8.23;;;7.28;;
23474;SDS011;11910;52.086;21.066;2023-09-18T03:12:09;13.25;;;7.88;;
23474;SDS011;11910;52.086;21.066;2023-09-18T03:14:36;7.75;;;6.95;;
23474;SDS011;11910;52.086;21.066;2023-09-18T03:17:01;8.63;;;7.50;;
23474;SDS011;11910;52.086;21.066;2023-09-18T03:19:27;9.25;;;8.30;;
23474;SDS011;11910;52.086;21.066;2023-09-18T03:21:52;13.00;;;8.95;;
23474;SDS011;11910;52.086;21.066;2023-09-18T03:24:18;15.63;;;9.52;;
23474;SDS011;11910;52.086;21.066;2023-09-18T03:26:43;9.32;;;8.43;;
23474;SDS011;11910;52.086;21.066;2023-09-18T03:29:09;9.50;;;7.88;;
23474;SDS011;11910;52.086;21.066;2023-09-18T03:31:35;10.13;;;8.80;;
23474;SDS011;11910;52.086;21.066;2023-09-18T03:34:01;10.45;;;8.13;;
23474;SDS011;11910;52.086;21.066;2023-09-18T03:36:26;12.80;;;9.25;;
23474;SDS011;11910;52.086;21.066;2023-09-18T03:38:52;9.70;;;8.68;;
23474;SDS011;11910;52.086;21.066;2023-09-18T03:41:18;10.35;;;8.02;;
23474;SDS011;11910;52.086;21.066;2023-09-18T03:43:43;10.05;;;8.60;;
23474;SDS011;11910;52.086;21.066;2023-09-18T03:46:09;11.30;;;8.18;;
23474;SDS011;11910;52.086;21.066;2023-09-18T03:48:34;10.98;;;9.52;;
23474;SDS011;11910;52.086;21.066;2023-09-18T03:51:06;12.10;;;10.73;;
23474;SDS011;11910;52.086;21.066;2023-09-18T03:53:33;8.50;;;7.57;;
23474;SDS011;11910;52.086;21.066;2023-09-18T03:55:58;11.73;;;8.40;;
23474;SDS011;11910;52.086;21.066;2023-09-18T03:58:24;10.32;;;8.15;;
23474;SDS011;11910;52.086;21.066;2023-09-18T04:00:50;13.27;;;9.93;;
23474;SDS011;11910;52.086;21.066;2023-09-18T04:03:16;10.85;;;7.70;;
23474;SDS011;11910;52.086;21.066;2023-09-18T04:05:42;9.68;;;8.20;;
23474;SDS011;11910;52.086;21.066;2023-09-18T04:08:08;9.75;;;8.80;;
23474;SDS011;11910;52.086;21.066;2023-09-18T04:10:34;10.23;;;8.95;;
23474;SDS011;11910;52.086;21.066;2023-09-18T04:12:59;10.48;;;9.40;;
23474;SDS011;11910;52.086;21.066;2023-09-18T04:15:25;10.48;;;9.45;;
23474;SDS011;11910;52.086;21.066;2023-09-18T04:17:52;10.27;;;8.73;;
23474;SDS011;11910;52.086;21.066;2023-09-18T04:20:18;11.05;;;9.20;;
23474;SDS011;11910;52.086;21.066;2023-09-18T04:22:44;9.68;;;8.32;;
23474;SDS011;11910;52.086;21.066;2023-09-18T04:25:14;9.85;;;8.95;;
23474;SDS011;11910;52.086;21.066;2023-09-18T04:27:40;10.65;;;9.43;;
23474;SDS011;11910;52.086;21.066;2023-09-18T04:30:06;10.00;;;8.55;;
23474;SDS011;11910;52.086;21.066;2023-09-18T04:32:34;11.75;;;10.00;;
23474;SDS011;11910;52.086;21.066;2023-09-18T04:35:01;10.18;;;9.18;;
23474;SDS011;11910;52.086;21.066;2023-09-18T04:37:26;9.57;;;8.20;;
23474;SDS011;11910;52.086;21.066;2023-09-18T04:39:52;13.10;;;11.70;;
23474;SDS011;11910;52.086;21.066;2023-09-18T04:42:17;13.07;;;11.52;;
23474;SDS011;11910;52.086;21.066;2023-09-18T04:44:43;14.27;;;12.60;;
23474;SDS011;11910;52.086;21.066;2023-09-18T04:47:09;17.02;;;14.93;;
23474;SDS011;11910;52.086;21.066;2023-09-18T04:49:35;15.55;;;14.05;;
23474;SDS011;11910;52.086;21.066;2023-09-18T04:52:00;15.50;;;13.75;;
23474;SDS011;11910;52.086;21.066;2023-09-18T04:54:26;22.90;;;17.50;;
23474;SDS011;11910;52.086;21.066;2023-09-18T04:56:51;16.30;;;14.68;;
23474;SDS011;11910;52.086;21.066;2023-09-18T04:59:17;18.50;;;16.77;;
23474;SDS011;11910;52.086;21.066;2023-09-18T05:01:42;17.05;;;15.32;;
23474;SDS011;11910;52.086;21.066;2023-09-18T05:04:09;18.70;;;16.80;;
23474;SDS011;11910;52.086;21.066;2023-09-18T05:06:34;19.33;;;17.23;;
23474;SDS011;11910;52.086;21.066;2023-09-18T05:09:00;18.38;;;16.63;;
23474;SDS011;11910;52.086;21.066;2023-09-18T05:11:25;19.35;;;17.33;;
23474;SDS011;11910;52.086;21.066;2023-09-18T05:13:51;20.65;;;17.25;;
23474;SDS011;11910;52.086;21.066;2023-09-18T05:16:18;17.42;;;15.63;;
23474;SDS011;11910;52.086;21.066;2023-09-18T05:18:43;19.05;;;17.25;;
23474;SDS011;11910;52.086;21.066;2023-09-18T05:21:09;17.70;;;15.82;;
23474;SDS011;11910;52.086;21.066;2023-09-18T05:23:35;18.70;;;16.70;;
23474;SDS011;11910;52.086;21.066;2023-09-18T05:26:01;21.17;;;18.90;;
23474;SDS011;11910;52.086;21.066;2023-09-18T05:28:28;21.20;;;18.67;;
23474;SDS011;11910;52.086;21.066;2023-09-18T05:30:53;20.30;;;18.15;;
23474;SDS011;11910;52.086;21.066;2023-09-18T05:33:20;22.55;;;20.10;;
23474;SDS011;11910;52.086;21.066;2023-09-18T05:35:45;22.10;;;19.80;;
23474;SDS011;11910;52.086;21.066;2023-09-18T05:38:11;22.30;;;18.95;;
23474;SDS011;11910;52.086;21.066;2023-09-18T05:40:38;26.95;;;21.60;;
23474;SDS011;11910;52.086;21.066;2023-09-18T05:43:05;21.70;;;19.50;;
23474;SDS011;11910;52.086;21.066;2023-09-18T05:45:31;24.98;;;22.08;;
23474;SDS011;11910;52.086;21.066;2023-09-18T05:47:57;29.73;;;20.73;;
23474;SDS011;11910;52.086;21.066;2023-09-18T05:50:26;29.27;;;22.08;;
23474;SDS011;11910;52.086;21.066;2023-09-18T05:52:54;26.48;;;21.35;;
23474;SDS011;11910;52.086;21.066;2023-09-18T05:55:24;29.38;;;23.10;;
23474;SDS011;11910;52.086;21.066;2023-09-18T05:57:50;25.13;;;22.40;;
23474;SDS011;11910;52.086;21.066;2023-09-18T06:00:16;31.88;;;24.65;;
23474;SDS011;11910;52.086;21.066;2023-09-18T06:02:43;24.80;;;20.65;;
23474;SDS011;11910;52.086;21.066;2023-09-18T06:05:10;25.58;;;22.60;;
23474;SDS011;11910;52.086;21.066;2023-09-18T06:07:36;27.08;;;22.42;;
23474;SDS011;11910;52.086;21.066;2023-09-18T06:10:02;28.48;;;23.20;;
23474;SDS011;11910;52.086;21.066;2023-09-18T06:12:29;30.80;;;24.27;;
23474;SDS011;11910;52.086;21.066;2023-09-18T06:14:55;27.90;;;23.88;;
23474;SDS011;11910;52.086;21.066;2023-09-18T06:17:20;26.17;;;22.90;;
23474;SDS011;11910;52.086;21.066;2023-09-18T06:19:46;25.02;;;22.25;;
23474;SDS011;11910;52.086;21.066;2023-09-18T06:22:12;28.90;;;24.65;;
23474;SDS011;11910;52.086;21.066;2023-09-18T06:24:38;29.92;;;25.80;;
23474;SDS011;11910;52.086;21.066;2023-09-18T06:27:04;25.02;;;22.35;;
23474;SDS011;11910;52.086;21.066;2023-09-18T06:29:33;25.20;;;22.45;;
23474;SDS011;11910;52.086;21.066;2023-09-18T06:31:59;24.75;;;21.10;;
23474;SDS011;11910;52.086;21.066;2023-09-18T06:34:25;25.83;;;22.88;;
23474;SDS011;11910;52.086;21.066;2023-09-18T06:36:51;21.80;;;19.60;;
23474;SDS011;11910;52.086;21.066;2023-09-18T06:39:17;21.42;;;19.23;;
23474;SDS011;11910;52.086;21.066;2023-09-18T06:41:42;19.25;;;17.40;;
23474;SDS011;11910;52.086;21.066;2023-09-18T06:44:08;21.40;;;19.25;;
23474;SDS011;11910;52.086;21.066;2023-09-18T06:46:34;20.58;;;18.48;;
23474;SDS011;11910;52.086;21.066;2023-09-18T06:48:59;21.58;;;19.27;;
23474;SDS011;11910;52.086;21.066;2023-09-18T06:51:29;21.02;;;19.00;;
23474;SDS011;11910;52.086;21.066;2023-09-18T06:53:54;21.77;;;18.30;;
23474;SDS011;11910;52.086;21.066;2023-09-18T06:56:22;21.13;;;18.92;;
23474;SDS011;11910;52.086;21.066;2023-09-18T06:58:51;21.17;;;18.98;;
23474;SDS011;11910;52.086;21.066;2023-09-18T07:01:17;20.60;;;18.40;;
23474;SDS011;11910;52.086;21.066;2023-09-18T07:03:44;20.83;;;18.27;;
23474;SDS011;11910;52.086;21.066;2023-09-18T07:06:12;21.00;;;18.98;;
23474;SDS011;11910;52.086;21.066;2023-09-18T07:08:38;18.20;;;16.30;;
23474;SDS011;11910;52.086;21.066;2023-09-18T07:11:04;19.50;;;17.02;;
23474;SDS011;11910;52.086;21.066;2023-09-18T07:13:30;18.98;;;17.17;;
23474;SDS011;11910;52.086;21.066;2023-09-18T07:15:56;19.42;;;16.40;;
23474;SDS011;11910;52.086;21.066;2023-09-18T07:18:21;19.17;;;15.35;;
23474;SDS011;11910;52.086;21.066;2023-09-18T07:20:47;18.45;;;16.30;;
23474;SDS011;11910;52.086;21.066;2023-09-18T07:23:13;18.45;;;15.93;;
23474;SDS011;11910;52.086;21.066;2023-09-18T07:25:39;19.02;;;17.23;;
23474;SDS011;11910;52.086;21.066;2023-09-18T07:28:05;18.20;;;16.50;;
23474;SDS011;11910;52.086;21.066;2023-09-18T07:30:31;17.20;;;15.48;;
23474;SDS011;11910;52.086;21.066;2023-09-18T07:32:58;17.85;;;15.80;;
23474;SDS011;11910;52.086;21.066;2023-09-18T07:35:25;17.60;;;15.82;;
23474;SDS011;11910;52.086;21.066;2023-09-18T07:37:51;19.35;;;15.30;;
23474;SDS011;11910;52.086;21.066;2023-09-18T07:40:16;19.38;;;15.15;;
23474;SDS011;11910;52.086;21.066;2023-09-18T07:42:42;16.40;;;14.52;;
23474;SDS011;11910;52.086;21.066;2023-09-18T07:45:11;16.52;;;14.75;;
23474;SDS011;11910;52.086;21.066;2023-09-18T07:47:37;16.45;;;13.65;;
23474;SDS011;11910;52.086;21.066;2023-09-18T07:50:03;16.08;;;14.55;;
23474;SDS011;11910;52.086;21.066;2023-09-18T07:52:30;15.52;;;14.02;;
23474;SDS011;11910;52.086;21.066;2023-09-18T07:54:56;16.38;;;14.77;;
23474;SDS011;11910;52.086;21.066;2023-09-18T07:57:25;15.73;;;14.13;;
23474;SDS011;11910;52.086;21.066;2023-09-18T07:59:54;15.43;;;13.85;;
23474;SDS011;11910;52.086;21.066;2023-09-18T08:02:20;15.15;;;13.63;;
23474;SDS011;11910;52.086;21.066;2023-09-18T08:04:46;16.17;;;14.68;;
23474;SDS011;11910;52.086;21.066;2023-09-18T08:07:12;15.30;;;13.48;;
23474;SDS011;11910;52.086;21.066;2023-09-18T08:09:38;15.35;;;13.95;;
23474;SDS011;11910;52.086;21.066;2023-09-18T08:12:04;15.38;;;13.82;;
23474;SDS011;11910;52.086;21.066;2023-09-18T08:14:31;14.93;;;13.43;;
23474;SDS011;11910;52.086;21.066;2023-09-18T08:16:58;14.77;;;13.43;;
23474;SDS011;11910;52.086;21.066;2023-09-18T08:19:25;15.60;;;14.10;;
23474;SDS011;11910;52.086;21.066;2023-09-18T08:21:52;15.00;;;12.70;;
23474;SDS011;11910;52.086;21.066;2023-09-18T08:24:19;16.27;;;13.13;;
23474;SDS011;11910;52.086;21.066;2023-09-18T08:26:45;15.13;;;13.20;;
23474;SDS011;11910;52.086;21.066;2023-09-18T08:29:11;13.68;;;12.38;;
23474;SDS011;11910;52.086;21.066;2023-09-18T08:31:37;13.10;;;11.75;;
23474;SDS011;11910;52.086;21.066;2023-09-18T08:34:02;12.80;;;11.50;;
23474;SDS011;11910;52.086;21.066;2023-09-18T08:36:28;12.52;;;11.43;;
23474;SDS011;11910;52.086;21.066;2023-09-18T08:38:55;14.30;;;11.25;;
23474;SDS011;11910;52.086;21.066;2023-09-18T08:41:21;12.43;;;10.63;;
23474;SDS011;11910;52.086;21.066;2023-09-18T08:43:52;11.77;;;10.43;;
23474;SDS011;11910;52.086;21.066;2023-09-18T08:46:24;11.18;;;10.00;;
23474;SDS011;11910;52.086;21.066;2023-09-18T08:48:50;11.93;;;10.55;;
23474;SDS011;11910;52.086;21.066;2023-09-18T08:51:18;12.07;;;10.85;;
23474;SDS011;11910;52.086;21.066;2023-09-18T08:53:44;10.40;;;9.50;;
23474;SDS011;11910;52.086;21.066;2023-09-18T08:56:11;11.68;;;9.85;;
23474;SDS011;11910;52.086;21.066;2023-09-18T08:58:39;11.18;;;9.43;;
23474;SDS011;11910;52.086;21.066;2023-09-18T09:01:08;10.18;;;9.15;;
23474;SDS011;11910;52.086;21.066;2023-09-18T09:03:38;13.55;;;11.52;;
23474;SDS011;11910;52.086;21.066;2023-09-18T09:06:05;10.98;;;9.65;;
23474;SDS011;11910;52.086;21.066;2023-09-18T09:08:32;11.75;;;10.10;;
23474;SDS011;11910;52.086;21.066;2023-09-18T09:10:58;10.50;;;9.45;;
23474;SDS011;11910;52.086;21.066;2023-09-18T09:13:24;8.50;;;7.75;;
23474;SDS011;11910;52.086;21.066;2023-09-18T09:15:51;10.18;;;8.80;;
23474;SDS011;11910;52.086;21.066;2023-09-18T09:18:20;13.88;;;9.30;;
23474;SDS011;11910;52.086;21.066;2023-09-18T09:20:53;8.65;;;7.88;;
23474;SDS011;11910;52.086;21.066;2023-09-18T09:23:27;8.60;;;7.70;;
23474;SDS011;11910;52.086;21.066;2023-09-18T09:26:00;8.00;;;7.20;;
23474;SDS011;11910;52.086;21.066;2023-09-18T09:28:38;8.98;;;7.15;;
23474;SDS011;11910;52.086;21.066;2023-09-18T09:31:04;8.57;;;6.80;;
23474;SDS011;11910;52.086;21.066;2023-09-18T09:33:30;7.63;;;6.93;;
23474;SDS011;11910;52.086;21.066;2023-09-18T09:35:56;7.03;;;6.43;;
23474;SDS011;11910;52.086;21.066;2023-09-18T09:38:29;7.97;;;6.65;;
23474;SDS011;11910;52.086;21.066;2023-09-18T09:40:59;7.20;;;6.50;;
23474;SDS011;11910;52.086;21.066;2023-09-18T09:43:32;7.78;;;6.80;;
23474;SDS011;11910;52.086;21.066;2023-09-18T09:46:01;8.40;;;6.40;;
23474;SDS011;11910;52.086;21.066;2023-09-18T09:48:27;5.88;;;5.35;;
23474;SDS011;11910;52.086;21.066;2023-09-18T09:50:59;6.80;;;6.25;;
23474;SDS011;11910;52.086;21.066;2023-09-18T09:53:44;7.13;;;6.43;;
23474;SDS011;11910;52.086;21.066;2023-09-18T09:56:16;8.40;;;6.87;;
23474;SDS011;11910;52.086;21.066;2023-09-18T09:59:07;10.45;;;8.93;;
23474;SDS011;11910;52.086;21.066;2023-09-18T10:01:33;6.80;;;6.20;;
23474;SDS011;11910;52.086;21.066;2023-09-18T10:03:59;6.95;;;5.50;;
23474;SDS011;11910;52.086;21.066;2023-09-18T10:06:40;6.78;;;6.18;;
23474;SDS011;11910;52.086;21.066;2023-09-18T10:09:08;7.55;;;5.88;;
23474;SDS011;11910;52.086;21.066;2023-09-18T10:11:46;10.27;;;8.70;;
23474;SDS011;11910;52.086;21.066;2023-09-18T10:14:21;6.28;;;5.68;;
23474;SDS011;11910;52.086;21.066;2023-09-18T10:16:56;7.07;;;6.45;;
23474;SDS011;11910;52.086;21.066;2023-09-18T10:19:38;10.07;;;6.80;;
23474;SDS011;11910;52.086;21.066;2023-09-18T10:25:13;9.30;;;5.57;;
23474;SDS011;11910;52.086;21.066;2023-09-18T10:30:14;6.10;;;5.60;;
23474;SDS011;11910;52.086;21.066;2023-09-18T10:32:43;6.60;;;6.00;;
23474;SDS011;11910;52.086;21.066;2023-09-18T10:35:11;6.82;;;5.47;;
23474;SDS011;11910;52.086;21.066;2023-09-18T10:37:37;10.63;;;6.70;;
23474;SDS011;11910;52.086;21.066;2023-09-18T10:40:03;6.45;;;5.95;;
23474;SDS011;11910;52.086;21.066;2023-09-18T10:42:33;6.07;;;5.53;;
23474;SDS011;11910;52.086;21.066;2023-09-18T10:45:00;6.70;;;6.10;;
23474;SDS011;11910;52.086;21.066;2023-09-18T10:47:29;8.95;;;6.70;;
23474;SDS011;11910;52.086;21.066;2023-09-18T10:49:56;6.30;;;5.50;;
23474;SDS011;11910;52.086;21.066;2023-09-18T10:52:21;6.50;;;5.90;;
23474;SDS011;11910;52.086;21.066;2023-09-18T10:54:47;7.00;;;6.38;;
23474;SDS011;11910;52.086;21.066;2023-09-18T10:57:13;5.95;;;5.35;;
23474;SDS011;11910;52.086;21.066;2023-09-18T10:59:45;8.57;;;5.78;;
23474;SDS011;11910;52.086;21.066;2023-09-18T11:02:14;6.30;;;5.80;;
23474;SDS011;11910;52.086;21.066;2023-09-18T11:04:44;6.03;;;5.53;;
23474;SDS011;11910;52.086;21.066;2023-09-18T11:07:20;6.75;;;6.15;;
23474;SDS011;11910;52.086;21.066;2023-09-18T11:09:46;6.65;;;5.45;;
23474;SDS011;11910;52.086;21.066;2023-09-18T11:12:14;6.97;;;6.38;;
23474;SDS011;11910;52.086;21.066;2023-09-18T11:20:21;6.60;;;5.88;;
23474;SDS011;11910;52.086;21.066;2023-09-18T11:22:59;8.70;;;5.97;;
23474;SDS011;11910;52.086;21.066;2023-09-18T11:25:41;6.72;;;6.13;;
23474;SDS011;11910;52.086;21.066;2023-09-18T11:28:28;7.40;;;6.43;;
23474;SDS011;11910;52.086;21.066;2023-09-18T11:30:54;10.95;;;6.30;;
23474;SDS011;11910;52.086;21.066;2023-09-18T11:36:02;7.45;;;6.75;;
23474;SDS011;11910;52.086;21.066;2023-09-18T11:38:31;14.75;;;7.15;;
23474;SDS011;11910;52.086;21.066;2023-09-18T11:40:59;7.50;;;6.55;;
23474;SDS011;11910;52.086;21.066;2023-09-18T11:43:27;9.82;;;6.78;;
23474;SDS011;11910;52.086;21.066;2023-09-18T11:46:00;9.27;;;6.97;;
23474;SDS011;11910;52.086;21.066;2023-09-18T11:48:29;9.02;;;6.82;;
23474;SDS011;11910;52.086;21.066;2023-09-18T11:50:58;9.45;;;6.70;;
23474;SDS011;11910;52.086;21.066;2023-09-18T11:53:24;8.07;;;6.68;;
23474;SDS011;11910;52.086;21.066;2023-09-18T11:55:52;10.98;;;7.28;;
23474;SDS011;11910;52.086;21.066;2023-09-18T11:58:18;8.25;;;7.32;;
23474;SDS011;11910;52.086;21.066;2023-09-18T12:00:48;9.77;;;6.72;;
23474;SDS011;11910;52.086;21.066;2023-09-18T12:05:55;8.38;;;7.10;;
23474;SDS011;11910;52.086;21.066;2023-09-18T12:08:25;11.10;;;7.65;;
23474;SDS011;11910;52.086;21.066;2023-09-18T12:10:54;10.60;;;6.95;;
23474;SDS011;11910;52.086;21.066;2023-09-18T12:13:20;10.73;;;7.57;;
23474;SDS011;11910;52.086;21.066;2023-09-18T12:15:47;8.63;;;7.35;;
23474;SDS011;11910;52.086;21.066;2023-09-18T12:18:14;9.40;;;7.00;;
23474;SDS011;11910;52.086;21.066;2023-09-18T12:20:44;8.02;;;7.22;;
23474;SDS011;11910;52.086;21.066;2023-09-18T12:23:11;8.63;;;7.35;;
23474;SDS011;11910;52.086;21.066;2023-09-18T12:25:38;8.93;;;7.28;;
23474;SDS011;11910;52.086;21.066;2023-09-18T12:28:05;8.80;;;7.43;;
23474;SDS011;11910;52.086;21.066;2023-09-18T12:30:32;9.32;;;7.40;;
23474;SDS011;11910;52.086;21.066;2023-09-18T12:32:59;9.45;;;8.15;;
23474;SDS011;11910;52.086;21.066;2023-09-18T12:35:25;8.15;;;7.35;;
23474;SDS011;11910;52.086;21.066;2023-09-18T12:37:55;8.65;;;7.63;;
23474;SDS011;11910;52.086;21.066;2023-09-18T12:40:26;10.90;;;7.38;;
23474;SDS011;11910;52.086;21.066;2023-09-18T12:42:56;10.82;;;7.40;;
23474;SDS011;11910;52.086;21.066;2023-09-18T12:45:26;9.93;;;7.43;;
23474;SDS011;11910;52.086;21.066;2023-09-18T12:47:54;8.65;;;7.82;;
23474;SDS011;11910;52.086;21.066;2023-09-18T12:50:20;8.40;;;7.63;;
23474;SDS011;11910;52.086;21.066;2023-09-18T12:52:46;9.50;;;7.60;;
23474;SDS011;11910;52.086;21.066;2023-09-18T12:55:21;8.07;;;7.28;;
23474;SDS011;11910;52.086;21.066;2023-09-18T12:57:51;8.95;;;7.43;;
23474;SDS011;11910;52.086;21.066;2023-09-18T13:00:18;11.48;;;7.70;;
23474;SDS011;11910;52.086;21.066;2023-09-18T13:02:47;9.77;;;8.68;;
23474;SDS011;11910;52.086;21.066;2023-09-18T13:05:22;9.23;;;8.20;;
23474;SDS011;11910;52.086;21.066;2023-09-18T13:07:51;12.85;;;8.20;;
23474;SDS011;11910;52.086;21.066;2023-09-18T13:10:17;9.68;;;7.28;;
23474;SDS011;11910;52.086;21.066;2023-09-18T13:12:50;9.93;;;7.88;;
23474;SDS011;11910;52.086;21.066;2023-09-18T13:15:25;8.65;;;7.85;;
23474;SDS011;11910;52.086;21.066;2023-09-18T13:17:52;9.15;;;8.25;;
23474;SDS011;11910;52.086;21.066;2023-09-18T13:20:25;8.35;;;7.55;;
23474;SDS011;11910;52.086;21.066;2023-09-18T13:22:54;10.40;;;8.50;;
23474;SDS011;11910;52.086;21.066;2023-09-18T13:25:21;12.25;;;7.72;;
23474;SDS011;11910;52.086;21.066;2023-09-18T13:27:58;8.18;;;7.35;;
23474;SDS011;11910;52.086;21.066;2023-09-18T13:30:25;8.90;;;8.10;;
23474;SDS011;11910;52.086;21.066;2023-09-18T13:32:51;7.65;;;6.93;;
23474;SDS011;11910;52.086;21.066;2023-09-18T13:35:26;8.32;;;7.40;;
23474;SDS011;11910;52.086;21.066;2023-09-18T13:37:51;9.13;;;7.30;;
23474;SDS011;11910;52.086;21.066;2023-09-18T13:40:17;9.02;;;7.93;;
23474;SDS011;11910;52.086;21.066;2023-09-18T13:42:42;7.28;;;6.60;;
23474;SDS011;11910;52.086;21.066;2023-09-18T13:45:08;9.57;;;7.28;;
23474;SDS011;11910;52.086;21.066;2023-09-18T13:47:34;11.23;;;6.75;;
23474;SDS011;11910;52.086;21.066;2023-09-18T13:50:01;9.45;;;6.68;;
23474;SDS011;11910;52.086;21.066;2023-09-18T13:52:29;8.43;;;6.60;;
23474;SDS011;11910;52.086;21.066;2023-09-18T13:54:57;16.73;;;7.15;;
23474;SDS011;11910;52.086;21.066;2023-09-18T13:57:23;8.88;;;7.00;;
23474;SDS011;11910;52.086;21.066;2023-09-18T13:59:50;8.43;;;7.00;;
23474;SDS011;11910;52.086;21.066;2023-09-18T14:02:16;12.05;;;7.18;;
23474;SDS011;11910;52.086;21.066;2023-09-18T14:04:42;9.00;;;7.60;;
23474;SDS011;11910;52.086;21.066;2023-09-18T14:07:09;10.18;;;6.38;;
23474;SDS011;11910;52.086;21.066;2023-09-18T14:09:36;8.57;;;7.75;;
23474;SDS011;11910;52.086;21.066;2023-09-18T14:12:02;8.38;;;7.30;;
23474;SDS011;11910;52.086;21.066;2023-09-18T14:14:28;9.93;;;7.20;;
23474;SDS011;11910;52.086;21.066;2023-09-18T14:16:53;13.38;;;7.55;;
23474;SDS011;11910;52.086;21.066;2023-09-18T14:19:19;8.52;;;7.10;;
23474;SDS011;11910;52.086;21.066;2023-09-18T14:21:45;8.35;;;7.00;;
23474;SDS011;11910;52.086;21.066;2023-09-18T14:24:10;10.77;;;7.32;;
23474;SDS011;11910;52.086;21.066;2023-09-18T14:26:36;15.63;;;8.77;;
23474;SDS011;11910;52.086;21.066;2023-09-18T14:29:08;10.15;;;7.70;;
23474;SDS011;11910;52.086;21.066;2023-09-18T14:31:37;8.15;;;7.03;;
23474;SDS011;11910;52.086;21.066;2023-09-18T14:34:03;9.32;;;7.22;;
23474;SDS011;11910;52.086;21.066;2023-09-18T14:36:30;8.65;;;7.85;;
23474;SDS011;11910;52.086;21.066;2023-09-18T14:38:58;9.65;;;7.90;;
23474;SDS011;11910;52.086;21.066;2023-09-18T14:41:27;9.15;;;7.80;;